Time;durP1;ratioP1;P1;durP2;ratioP2;P2;SDS_P1;SDS_P2;PMS_P1;PMS_P2;Temp;Humidity;BMP_temperature;BMP_pressure;BME280_temperature;BME280_humidity;BME280_pressure;Samples;Min_cycle;Max_cycle;Signal;HPM_P1;HPM_P2
2022/07/10 00:01:26;;;;;;;9.10;3.90;;;;;;;21.58;66.02;98365.66;25204;1313;3026748;-66
2022/07/10 00:03:55;;;;;;;8.00;4.40;;;;;;;21.30;66.77;98364.77;25209;1309;3051289;-62
2022/07/10 00:06:24;;;;;;;10.40;4.40;;;;;;;21.18;67.27;98370.89;25199;1310;3026661;-65
2022/07/10 00:08:55;;;;;;;7.30;4.30;;;;;;;21.06;67.65;98363.25;25169;1310;3049857;-64
2022/07/10 00:11:25;;;;;;;7.40;3.40;;;;;;;21.01;68.07;98362.15;25214;1313;3026006;-65
2022/07/10 00:13:54;;;;;;;8.00;4.00;;;;;;;21.51;66.56;98361.76;25148;1310;3026674;-65
2022/07/10 00:16:24;;;;;;;6.30;4.00;;;;;;;21.67;65.76;98361.05;25209;1310;3051154;-66
2022/07/10 00:18:53;;;;;;;10.50;4.30;;;;;;;21.54;65.98;98367.91;25169;1313;3026737;-65
2022/07/10 00:21:22;;;;;;;8.10;4.30;;;;;;;21.43;66.50;98370.13;25200;1309;3027244;-66
2022/07/10 00:23:52;;;;;;;5.80;4.00;;;;;;;21.27;66.88;98375.02;25147;1310;3051194;-65
2022/07/10 00:26:21;;;;;;;9.00;4.40;;;;;;;21.09;67.56;98371.11;25198;1310;3026650;-65
2022/07/10 00:28:50;;;;;;;12.80;4.00;;;;;;;20.98;68.12;98377.58;25178;1310;3068844;-65
2022/07/10 00:31:19;;;;;;;15.50;3.60;;;;;;;20.91;68.73;98372.45;25202;1310;3026576;-65
2022/07/10 00:33:48;;;;;;;5.80;3.50;;;;;;;21.31;67.53;98367.70;25168;1310;3053766;-64
2022/07/10 00:36:16;;;;;;;8.10;4.10;;;;;;;21.57;66.48;98369.55;25160;1309;3027020;-65
2022/07/10 00:38:45;;;;;;;9.00;3.90;;;;;;;21.47;66.69;98376.42;25116;1312;3054580;-65
2022/07/10 00:41:15;;;;;;;8.90;4.10;;;;;;;21.33;67.07;98384.08;25182;1310;3028242;-66
2022/07/10 00:43:58;;;;;;;11.10;4.50;;;;;;;21.22;67.57;98366.86;25201;1310;3028495;-62
2022/07/10 00:46:28;;;;;;;10.90;4.10;;;;;;;21.02;68.27;98353.15;25175;1309;3055429;-66
2022/07/10 00:48:57;;;;;;;10.00;4.40;;;;;;;20.87;68.70;98357.19;25187;1309;3026619;-65
2022/07/10 00:51:28;;;;;;;7.30;3.30;;;;;;;20.85;68.98;98364.22;25231;1311;3026466;-64
2022/07/10 00:53:57;;;;;;;19.40;4.10;;;;;;;21.38;67.56;98355.26;25223;1310;3052599;-63
2022/07/10 00:56:27;;;;;;;6.40;4.10;;;;;;;21.63;66.36;98356.66;25217;1310;3026275;-66
2022/07/10 00:58:56;;;;;;;5.60;4.10;;;;;;;21.52;66.52;98355.86;25166;1310;3048930;-64
2022/07/10 01:01:25;;;;;;;7.30;4.20;;;;;;;21.35;67.20;98349.29;25211;1309;3026870;-64
2022/07/10 01:03:54;;;;;;;11.80;4.60;;;;;;;21.20;67.66;98348.90;25169;1309;3058123;-66
2022/07/10 01:06:23;;;;;;;11.80;5.00;;;;;;;21.09;68.08;98358.14;25180;1309;3027100;-65
2022/07/10 01:08:52;;;;;;;7.50;4.60;;;;;;;20.97;68.59;98349.09;25202;1310;3054169;-65
2022/07/10 01:11:23;;;;;;;7.40;3.40;;;;;;;20.90;68.94;98351.54;25211;1310;3028662;-66
2022/07/10 01:13:53;;;;;;;11.50;3.50;;;;;;;21.41;67.70;98352.61;25158;1310;3026613;-65
2022/07/10 01:16:23;;;;;;;4.80;3.70;;;;;;;21.81;66.10;98341.56;25209;1313;3026414;-65
2022/07/10 01:18:52;;;;;;;7.80;4.40;;;;;;;21.73;65.91;98334.94;25198;1310;3028646;-65
2022/07/10 01:21:25;;;;;;;6.50;4.50;;;;;;;21.52;66.73;98340.67;25155;1313;3050438;-65
2022/07/10 01:23:55;;;;;;;8.30;4.60;;;;;;;21.31;67.28;98340.42;25223;1310;3054969;-65
2022/07/10 01:26:24;;;;;;;11.10;5.40;;;;;;;21.08;68.21;98341.04;25171;1310;3029666;-64
2022/07/10 01:28:53;;;;;;;8.90;4.80;;;;;;;20.89;69.00;98337.70;25148;1310;3026962;-65
2022/07/10 01:31:26;;;;;;;11.80;4.10;;;;;;;20.78;69.48;98337.48;25215;1310;3056278;-66
2022/07/10 01:33:55;;;;;;;8.90;4.10;;;;;;;21.10;68.60;98336.21;25249;1310;3027782;-64
2022/07/10 01:36:24;;;;;;;10.80;5.00;;;;;;;21.35;67.69;98338.73;25121;1310;3026223;-62
2022/07/10 01:38:54;;;;;;;9.30;4.30;;;;;;;21.27;67.79;98339.58;25248;1310;3053674;-65
2022/07/10 01:41:25;;;;;;;7.90;5.20;;;;;;;21.11;68.52;98343.58;25223;1310;3027018;-63
2022/07/10 01:43:55;;;;;;;8.20;5.70;;;;;;;20.94;69.05;98337.02;25199;1310;3026864;-63
2022/07/10 01:46:24;;;;;;;9.20;4.60;;;;;;;20.81;69.43;98333.40;25119;1312;3026773;-65
2022/07/10 01:48:53;;;;;;;13.30;4.60;;;;;;;20.73;69.84;98328.07;25198;1310;3052477;-66
2022/07/10 01:51:22;;;;;;;6.30;4.10;;;;;;;21.09;68.90;98326.02;25202;1310;3027262;-65
2022/07/10 01:53:52;;;;;;;6.00;4.60;;;;;;;21.32;67.99;98322.58;25147;1310;3026315;-65
2022/07/10 01:56:21;;;;;;;9.70;5.00;;;;;;;21.25;68.00;98323.26;25192;1310;3026544;-65
2022/07/10 01:58:50;;;;;;;11.80;5.10;;;;;;;20.98;69.05;98320.64;25085;1310;3069627;-65
2022/07/10 02:01:19;;;;;;;6.40;4.70;;;;;;;20.70;70.08;98320.82;25189;1310;3026162;-65
2022/07/10 02:06:37;;;;;;;7.70;4.10;;;;;;;20.45;71.83;98320.36;25164;1313;3071683;-65
2022/07/10 02:09:06;;;;;;;9.10;4.50;;;;;;;20.83;70.70;98312.83;25179;1310;3026841;-62
2022/07/10 02:11:35;;;;;;;10.00;4.20;;;;;;;20.92;70.18;98316.08;25156;1313;3052976;-67
2022/07/10 02:14:04;;;;;;;18.10;4.10;;;;;;;20.85;70.27;98313.30;25175;1310;3026224;-67
2022/07/10 02:16:33;;;;;;;5.50;4.80;;;;;;;20.62;71.17;98309.34;25206;1310;3052186;-65
2022/07/10 02:19:02;;;;;;;9.60;5.60;;;;;;;20.41;71.96;98306.45;25189;1310;3029363;-65
2022/07/10 02:21:31;;;;;;;6.40;4.00;;;;;;;20.28;72.79;98308.73;25176;1310;3054086;-65
2022/07/10 02:24:00;;;;;;;7.50;4.40;;;;;;;20.63;71.52;98304.03;25220;1310;3028509;-63
2022/07/10 02:26:29;;;;;;;13.00;4.80;;;;;;;20.75;70.77;98311.33;25184;1310;3056284;-65
2022/07/10 02:28:58;;;;;;;7.00;4.30;;;;;;;20.65;70.97;98313.96;25200;1310;3026166;-63
2022/07/10 02:31:27;;;;;;;12.10;4.70;;;;;;;20.49;71.69;98312.62;25210;1310;3026708;-64
2022/07/10 02:33:57;;;;;;;6.50;4.30;;;;;;;20.28;72.52;98315.13;25131;1310;3059336;-63
2022/07/10 02:36:26;;;;;;;6.40;4.10;;;;;;;20.20;73.01;98308.86;25091;1310;3026790;-64
2022/07/10 02:38:56;;;;;;;11.60;4.40;;;;;;;20.53;71.94;98306.11;25143;1310;3055051;-63
2022/07/10 02:41:25;;;;;;;10.10;4.70;;;;;;;20.56;71.74;98305.38;25170;1310;3026491;-63
2022/07/10 02:43:54;;;;;;;7.90;5.00;;;;;;;20.43;71.79;98301.95;25164;1310;3029866;-65
2022/07/10 02:46:23;;;;;;;10.90;4.90;;;;;;;20.30;72.26;98297.11;25177;1310;3054652;-65
2022/07/10 02:48:52;;;;;;;8.40;4.70;;;;;;;20.21;72.73;98296.57;25110;1310;3026234;-64
2022/07/10 02:51:22;;;;;;;7.80;3.80;;;;;;;20.20;72.98;98289.74;25179;1310;3054732;-65
2022/07/10 02:53:51;;;;;;;6.40;4.50;;;;;;;20.55;71.58;98282.89;25157;1310;3026615;-65
2022/07/10 02:56:20;;;;;;;6.40;4.40;;;;;;;20.72;70.87;98280.57;25191;1310;3026826;-63
2022/07/10 02:58:49;;;;;;;10.40;4.30;;;;;;;20.53;71.44;98280.36;25145;1310;3054771;-64
2022/07/10 03:01:18;;;;;;;8.20;4.60;;;;;;;20.41;71.82;98278.95;25198;1310;3026534;-64
2022/07/10 03:03:47;;;;;;;9.60;4.80;;;;;;;20.28;72.37;98279.05;25142;1310;3051214;-63
2022/07/10 03:06:16;;;;;;;6.20;3.80;;;;;;;20.26;72.73;98282.53;25232;1309;3026659;-64
2022/07/10 03:08:46;;;;;;;8.70;4.70;;;;;;;20.68;71.24;98277.30;25149;1310;3070568;-65
2022/07/10 03:11:16;;;;;;;6.20;4.00;;;;;;;20.86;70.31;98276.15;25188;1310;3026706;-66
2022/07/10 03:13:46;;;;;;;6.90;4.60;;;;;;;20.72;70.38;98279.51;25161;1310;3026891;-65
2022/07/10 03:16:15;;;;;;;6.20;4.60;;;;;;;20.59;70.85;98275.52;25149;1310;3070331;-64
2022/07/10 03:18:45;;;;;;;7.50;4.30;;;;;;;20.47;71.11;98272.34;25211;1310;3026625;-65
2022/07/10 03:21:14;;;;;;;11.10;3.40;;;;;;;20.43;71.33;98273.25;25198;1310;3053401;-65
2022/07/10 03:23:43;;;;;;;7.40;3.80;;;;;;;20.86;69.73;98276.59;25172;1310;3027020;-65
2022/07/10 03:26:14;;;;;;;6.60;4.40;;;;;;;20.99;69.03;98276.33;25118;1310;3055336;-66
2022/07/10 03:28:44;;;;;;;8.90;4.10;;;;;;;20.88;69.00;98287.00;25213;1310;3026663;-64
2022/07/10 03:31:13;;;;;;;7.60;4.60;;;;;;;20.81;69.17;98283.40;25167;1310;3028148;-65
2022/07/10 03:33:42;;;;;;;13.10;4.80;;;;;;;20.75;69.30;98287.80;25197;1310;3053623;-65
2022/07/10 03:36:13;;;;;;;11.10;4.40;;;;;;;20.64;69.52;98289.17;25185;1310;3026149;-65
2022/07/10 03:38:45;;;;;;;7.40;4.30;;;;;;;20.70;69.34;98291.67;25237;1310;3053876;-65
2022/07/10 03:41:14;;;;;;;7.30;4.00;;;;;;;21.12;67.92;98295.77;25575;1310;3026432;-63
2022/07/10 03:43:43;;;;;;;6.70;4.30;;;;;;;21.50;66.27;98298.55;25586;1310;3026359;-65
2022/07/10 03:46:12;;;;;;;10.10;4.70;;;;;;;21.46;66.00;98297.83;25392;1310;3051864;-66
2022/07/10 03:48:41;;;;;;;6.40;4.40;;;;;;;21.33;66.03;98305.13;25242;1310;3026452;-66
2022/07/10 03:51:10;;;;;;;6.00;4.50;;;;;;;21.01;66.98;98306.08;25132;1310;3058764;-64
2022/07/10 03:53:39;;;;;;;9.60;5.00;;;;;;;20.85;67.72;98308.94;25171;1310;3026644;-65
2022/07/10 03:56:08;;;;;;;8.70;5.20;;;;;;;20.89;67.45;98301.02;25174;1310;3052940;-65
2022/07/10 03:58:37;;;;;;;12.40;5.30;;;;;;;20.83;67.95;98306.14;25219;1310;3029390;-63
2022/07/10 04:01:06;;;;;;;11.00;6.40;;;;;;;21.38;66.20;98301.02;25199;1310;3054333;-65
2022/07/10 04:03:36;;;;;;;10.40;6.60;;;;;;;21.67;64.63;98297.05;25136;1310;3026503;-65
2022/07/10 04:06:05;;;;;;;11.10;6.90;;;;;;;21.68;64.33;98301.61;25205;1310;3027023;-65
2022/07/10 04:08:37;;;;;;;13.30;7.00;;;;;;;21.61;64.36;98304.05;25207;1310;3054653;-65
2022/07/10 04:11:06;;;;;;;12.90;6.90;;;;;;;21.34;65.02;98308.38;25154;1310;3026457;-64
2022/07/10 04:13:36;;;;;;;12.20;5.80;;;;;;;21.25;65.42;98306.10;25172;1310;3027553;-66
2022/07/10 04:16:06;;;;;;;10.10;5.50;;;;;;;21.17;65.22;98305.89;25173;1310;3027160;-65
2022/07/10 04:18:36;;;;;;;11.80;4.70;;;;;;;21.09;65.55;98304.16;25201;1310;3052666;-65
2022/07/10 04:21:05;;;;;;;8.80;4.60;;;;;;;21.14;65.30;98301.65;25152;1310;3026354;-66
2022/07/10 04:23:34;;;;;;;7.50;4.40;;;;;;;21.16;65.04;98302.42;25146;1310;3051275;-65
2022/07/10 04:26:03;;;;;;;4.70;3.30;;;;;;;21.32;64.85;98298.51;25134;1310;3026829;-63
2022/07/10 04:28:32;;;;;;;7.60;3.30;;;;;;;21.94;63.43;98295.39;25138;1310;3047807;-66
2022/07/10 04:31:01;;;;;;;9.60;3.80;;;;;;;22.44;61.66;98293.53;25182;1310;3026309;-64
2022/07/10 04:33:30;;;;;;;6.70;4.00;;;;;;;22.50;61.03;98295.34;25143;1310;3070215;-66
2022/07/10 04:35:59;;;;;;;6.70;4.10;;;;;;;22.32;61.46;98298.40;25171;1310;3026434;-67
2022/07/10 04:38:28;;;;;;;8.20;4.10;;;;;;;22.15;61.79;98305.73;25160;1310;3053688;-65
2022/07/10 04:40:58;;;;;;;8.20;4.20;;;;;;;22.22;61.99;98292.93;25165;1310;3026851;-65
2022/07/10 04:43:26;;;;;;;11.00;4.30;;;;;;;22.21;61.99;98293.42;25131;1310;3030381;-63
2022/07/10 04:45:56;;;;;;;8.90;4.60;;;;;;;22.17;62.30;98288.27;25171;1310;3025988;-64
2022/07/10 04:48:25;;;;;;;9.30;4.10;;;;;;;22.22;61.79;98283.52;25196;1310;3026876;-63
2022/07/10 04:50:54;;;;;;;6.50;4.30;;;;;;;22.31;61.38;98285.52;25170;1310;3048741;-63
2022/07/10 04:53:22;;;;;;;10.60;4.20;;;;;;;22.44;61.21;98293.34;25223;1310;3027118;-65
2022/07/10 04:55:51;;;;;;;7.00;3.90;;;;;;;22.43;60.99;98301.57;25159;1310;3069066;-65
2022/07/10 04:58:20;;;;;;;6.80;4.20;;;;;;;22.38;59.78;98297.54;25203;1310;3026878;-64
2022/07/10 05:00:49;;;;;;;7.90;4.20;;;;;;;22.36;59.79;98301.06;25160;1310;3053050;-65
2022/07/10 05:03:19;;;;;;;5.90;3.50;;;;;;;22.42;60.34;98297.89;25162;1310;3026973;-66
2022/07/10 05:05:48;;;;;;;7.00;3.60;;;;;;;22.52;60.08;98296.63;25183;1310;3026346;-67
2022/07/10 05:08:17;;;;;;;10.20;4.50;;;;;;;22.56;60.18;98298.62;25216;1309;3053947;-65
2022/07/10 05:10:46;;;;;;;6.40;4.10;;;;;;;22.61;60.33;98292.30;25173;1310;3030106;-65
2022/07/10 05:13:15;;;;;;;9.20;4.90;;;;;;;22.60;60.40;98290.23;25157;1310;3055176;-64
2022/07/10 05:15:47;;;;;;;8.30;5.10;;;;;;;22.46;61.57;98290.34;25228;1310;3026341;-65
2022/07/10 05:18:17;;;;;;;15.20;6.10;;;;;;;22.44;62.14;98281.08;25172;1310;3049854;-65
2022/07/10 05:20:49;;;;;;;10.50;5.10;;;;;;;22.44;62.36;98270.12;25219;1310;3026795;-65
2022/07/10 05:23:17;;;;;;;12.50;5.90;;;;;;;22.47;62.58;98267.13;25161;1310;3057516;-63
2022/07/10 05:25:46;;;;;;;12.70;5.80;;;;;;;22.45;63.03;98262.39;25197;1310;3026320;-63
2022/07/10 05:28:15;;;;;;;8.70;6.10;;;;;;;22.41;62.99;98262.15;25193;1310;3054496;-66
2022/07/10 05:30:45;;;;;;;8.60;5.30;;;;;;;22.33;63.76;98260.34;25179;1310;3026729;-63
2022/07/10 05:33:14;;;;;;;8.40;4.40;;;;;;;22.42;64.21;98252.48;25169;1310;3026346;-64
2022/07/10 05:35:43;;;;;;;11.60;5.90;;;;;;;23.05;63.10;98234.80;25149;1310;3053280;-65
2022/07/10 05:38:12;;;;;;;10.20;5.90;;;;;;;23.35;62.58;98225.99;25207;1310;3028804;-65
2022/07/10 05:40:41;;;;;;;9.10;6.10;;;;;;;23.29;62.44;98230.05;25158;1309;3050626;-66
2022/07/10 05:43:11;;;;;;;14.20;7.00;;;;;;;23.17;63.47;98233.19;25184;1310;3026692;-65
2022/07/10 05:45:40;;;;;;;8.20;6.00;;;;;;;23.20;63.21;98227.34;25167;1310;3027615;-65
2022/07/10 05:48:12;;;;;;;10.70;5.90;;;;;;;23.03;63.89;98239.90;25159;1310;3052049;-62
2022/07/10 05:50:42;;;;;;;8.00;5.50;;;;;;;22.88;64.23;98241.98;25157;1310;3026880;-64
2022/07/10 05:53:11;;;;;;;14.50;6.00;;;;;;;22.78;64.94;98245.24;25083;1310;3026950;-64
2022/07/10 05:55:40;;;;;;;7.80;5.70;;;;;;;22.67;65.29;98249.81;25176;1310;3054399;-64
2022/07/10 05:58:09;;;;;;;8.60;5.40;;;;;;;22.63;65.28;98252.45;25166;1310;3026643;-64
2022/07/10 06:00:38;;;;;;;8.10;4.40;;;;;;;22.81;64.95;98246.54;25118;1312;3048996;-66
2022/07/10 06:03:07;;;;;;;8.90;4.80;;;;;;;23.29;63.32;98247.55;25196;1310;3026381;-65
2022/07/10 06:05:36;;;;;;;7.40;4.90;;;;;;;23.44;62.56;98245.74;25187;1310;3069243;-65
2022/07/10 06:08:05;;;;;;;9.30;5.00;;;;;;;23.32;62.84;98244.42;25189;1310;3027804;-67
2022/07/10 06:10:34;;;;;;;9.50;5.60;;;;;;;23.04;64.05;98242.54;25176;1310;3026399;-63
2022/07/10 06:13:03;;;;;;;10.70;5.30;;;;;;;22.84;64.55;98248.30;25199;1310;3068202;-65
2022/07/10 06:15:32;;;;;;;7.00;5.50;;;;;;;22.61;65.20;98245.93;25236;1310;3029266;-63
2022/07/10 06:18:02;;;;;;;11.80;5.80;;;;;;;22.64;64.95;98233.52;25176;1310;3026828;-64
2022/07/10 06:20:31;;;;;;;9.70;5.60;;;;;;;22.55;65.07;98232.23;25172;1310;3070277;-65
2022/07/10 06:23:00;;;;;;;12.10;6.00;;;;;;;22.43;65.67;98229.23;25180;1310;3026941;-65
2022/07/10 06:25:29;;;;;;;9.00;5.60;;;;;;;22.44;65.88;98220.59;25219;1310;3053579;-63
2022/07/10 06:27:58;;;;;;;5.10;4.50;;;;;;;22.57;65.29;98219.65;25183;1310;3026320;-63
2022/07/10 06:30:27;;;;;;;7.20;5.20;;;;;;;23.06;63.91;98216.11;25228;1310;3054957;-63
2022/07/10 06:32:56;;;;;;;8.20;5.50;;;;;;;23.24;63.17;98210.20;25195;1310;3026784;-64
2022/07/10 06:35:25;;;;;;;9.70;5.20;;;;;;;23.18;63.36;98211.31;25140;1310;3052341;-65
2022/07/10 06:37:54;;;;;;;11.70;5.60;;;;;;;23.33;63.04;98202.50;25181;1313;3030152;-64
2022/07/10 06:40:23;;;;;;;14.00;6.00;;;;;;;23.28;63.09;98204.64;25200;1310;3058437;-65
2022/07/10 06:42:53;;;;;;;10.40;6.70;;;;;;;23.10;63.46;98204.67;25152;1310;3026885;-64
2022/07/10 06:45:22;;;;;;;11.90;5.80;;;;;;;23.16;63.56;98197.46;25212;1310;3026764;-65
2022/07/10 06:47:58;;;;;;;10.40;5.50;;;;;;;23.19;63.20;98187.90;25160;1309;3054841;-65
2022/07/10 06:50:34;;;;;;;10.30;6.10;;;;;;;23.21;63.19;98168.20;25174;1310;3050215;-64
2022/07/10 06:53:03;;;;;;;15.50;5.50;;;;;;;23.40;62.40;98158.02;25133;1310;3053220;-66
2022/07/10 06:55:32;;;;;;;9.10;5.30;;;;;;;23.48;61.54;98157.67;25201;1310;3026575;-64
2022/07/10 06:58:02;;;;;;;9.30;5.80;;;;;;;23.69;60.91;98163.08;25201;1310;3050441;-64
2022/07/10 07:00:31;;;;;;;10.00;5.20;;;;;;;23.82;60.21;98165.52;25222;1310;3026281;-65
2022/07/10 07:03:00;;;;;;;8.20;5.60;;;;;;;23.96;59.90;98175.08;25255;1310;3028666;-64
2022/07/10 07:05:29;;;;;;;14.20;5.30;;;;;;;24.03;59.26;98175.71;25165;1310;3028469;-63
2022/07/10 07:08:00;;;;;;;12.50;5.20;;;;;;;24.14;58.57;98187.48;25187;1310;3054049;-65
2022/07/10 07:10:29;;;;;;;10.50;4.90;;;;;;;23.97;58.62;98190.75;25176;1310;3026878;-63
2022/07/10 07:12:59;;;;;;;10.90;5.50;;;;;;;23.79;59.26;98189.48;25207;1310;3026776;-64
2022/07/10 07:15:29;;;;;;;9.70;5.40;;;;;;;23.88;59.54;98185.61;25174;1310;3026967;-63
2022/07/10 07:18:07;;;;;;;11.70;5.40;;;;;;;23.97;59.05;98185.84;25205;1310;3028492;-65
2022/07/10 07:23:25;;;;;;;9.60;5.50;;;;;;;23.88;58.32;98188.83;25202;1310;3058741;-64
2022/07/10 07:25:55;;;;;;;11.70;5.30;;;;;;;23.86;58.20;98188.23;25166;1310;3027053;-65
2022/07/10 07:28:25;;;;;;;10.70;5.80;;;;;;;23.84;58.37;98184.83;25187;1310;3053662;-64
2022/07/10 07:30:55;;;;;;;15.80;6.10;;;;;;;23.89;58.03;98186.53;25204;1310;3026126;-65
2022/07/10 07:33:24;;;;;;;13.90;6.20;;;;;;;24.03;58.02;98191.27;25162;1310;3026396;-66
2022/07/10 07:35:53;;;;;;;9.10;5.90;;;;;;;24.17;57.71;98198.69;25149;1310;3054846;-65
2022/07/10 07:38:22;;;;;;;12.60;5.70;;;;;;;24.29;57.43;98197.57;25233;1310;3027683;-66
2022/07/10 07:40:54;;;;;;;10.80;5.90;;;;;;;24.38;57.23;98206.73;25191;1310;3050889;-66
2022/07/10 07:43:22;;;;;;;11.10;5.80;;;;;;;24.54;56.63;98207.46;25197;1310;3026518;-66
2022/07/10 07:45:51;;;;;;;11.40;5.30;;;;;;;24.76;56.10;98208.70;25125;1310;3052415;-65
2022/07/10 07:48:20;;;;;;;10.60;5.50;;;;;;;24.97;55.15;98214.45;25211;1310;3026428;-64
2022/07/10 07:50:50;;;;;;;11.80;5.70;;;;;;;25.00;54.06;98211.70;25203;1310;3071492;-66
2022/07/10 07:53:19;;;;;;;7.40;4.90;;;;;;;25.11;53.79;98214.98;25067;1312;3453901;-66
2022/07/10 07:55:48;;;;;;;16.30;5.90;;;;;;;25.11;53.42;98220.20;25519;1310;3050896;-64
2022/07/10 07:58:17;;;;;;;11.60;5.40;;;;;;;25.01;52.91;98217.70;25569;1310;3026641;-65
2022/07/10 08:00:46;;;;;;;11.20;6.40;;;;;;;24.92;53.28;98221.83;25232;1310;3051131;-65
2022/07/10 08:03:15;;;;;;;10.10;5.50;;;;;;;25.02;53.43;98223.98;25239;1310;3026590;-64
2022/07/10 08:05:44;;;;;;;11.40;5.90;;;;;;;25.12;53.44;98225.27;25180;1310;3052719;-63
2022/07/10 08:08:13;;;;;;;15.70;6.30;;;;;;;25.21;53.22;98224.60;25182;1310;3027792;-66
2022/07/10 08:10:42;;;;;;;9.40;6.20;;;;;;;25.54;52.91;98210.25;25107;1313;3055556;-65
2022/07/10 08:13:15;;;;;;;9.00;6.20;;;;;;;25.67;52.57;98212.23;25155;1310;3028277;-65
2022/07/10 08:15:44;;;;;;;11.90;6.30;;;;;;;25.86;52.16;98205.11;25190;1310;3027588;-65
2022/07/10 08:18:13;;;;;;;11.50;5.50;;;;;;;25.87;51.92;98209.85;25170;1310;3058458;-65
2022/07/10 08:20:42;;;;;;;13.00;6.00;;;;;;;26.11;51.53;98203.87;25221;1310;3027056;-66
2022/07/10 08:23:11;;;;;;;10.10;6.20;;;;;;;26.32;50.64;98211.70;25170;1310;3027936;-67
2022/07/10 08:25:41;;;;;;;12.40;7.30;;;;;;;26.31;49.07;98222.59;25158;1310;3058452;-64
2022/07/10 08:28:11;;;;;;;13.40;6.90;;;;;;;26.43;48.35;98234.13;25220;1310;3026508;-66
2022/07/10 08:30:42;;;;;;;16.30;8.20;;;;;;;26.66;47.29;98252.54;25218;1310;3055422;-64
2022/07/10 08:33:12;;;;;;;17.60;7.80;;;;;;;26.87;46.40;98254.11;25191;1310;3026198;-64
2022/07/10 08:35:41;;;;;;;13.80;7.80;;;;;;;27.14;46.49;98261.76;25158;1310;3026239;-65
2022/07/10 08:38:12;;;;;;;13.00;8.00;;;;;;;27.41;46.26;98253.86;25196;1310;3027582;-64
2022/07/10 08:40:41;;;;;;;15.60;8.00;;;;;;;27.61;45.98;98246.98;25204;1310;3026969;-65
2022/07/10 08:43:10;;;;;;;20.80;8.50;;;;;;;27.64;45.26;98244.11;25130;1310;3026929;-64
2022/07/10 08:45:39;;;;;;;12.40;7.70;;;;;;;27.58;45.14;98243.23;25204;1310;3052784;-66
2022/07/10 08:48:08;;;;;;;17.30;8.60;;;;;;;27.61;44.73;98247.14;25188;1310;3026405;-66
2022/07/10 08:50:38;;;;;;;16.80;7.80;;;;;;;27.59;45.07;98249.62;25169;1310;3049735;-65
2022/07/10 08:53:12;;;;;;;13.80;8.60;;;;;;;27.73;45.01;98254.86;25195;1310;3028476;-65
2022/07/10 08:55:41;;;;;;;10.60;8.10;;;;;;;27.82;45.02;98257.64;25206;1310;3053572;-65
2022/07/10 08:58:11;;;;;;;17.20;8.60;;;;;;;27.96;44.90;98254.14;25178;1310;3027194;-67
2022/07/10 09:00:41;;;;;;;13.40;8.80;;;;;;;28.05;44.64;98251.39;25217;1310;3026704;-66
2022/07/10 09:03:10;;;;;;;17.40;9.00;;;;;;;28.13;44.20;98255.39;25184;1310;3027018;-67
2022/07/10 09:05:40;;;;;;;14.30;8.50;;;;;;;28.08;43.78;98250.59;25150;1310;3070978;-64
2022/07/10 09:08:33;;;;;;;18.40;9.00;;;;;;;27.94;43.45;98240.92;25201;1310;3026782;-64
2022/07/10 09:11:20;;;;;;;16.50;9.30;;;;;;;27.68;43.94;98229.86;25225;1310;3051119;-66
2022/07/10 09:13:51;;;;;;;18.10;9.60;;;;;;;27.48;44.25;98214.30;25150;1310;3055170;-63
2022/07/10 09:17:11;;;;;;;16.90;9.80;;;;;;;27.20;44.38;98212.73;31578;1318;3028930;-64
2022/07/10 09:19:41;;;;;;;18.40;10.90;;;;;;;27.26;44.24;98203.98;25016;1318;3028277;-63
2022/07/10 09:22:11;;;;;;;20.80;9.40;;;;;;;27.29;44.31;98188.88;25005;1318;3027358;-65
2022/07/10 09:24:40;;;;;;;18.00;9.00;;;;;;;27.22;44.17;98171.59;24988;1318;3026566;-66
2022/07/10 09:27:10;;;;;;;20.50;8.70;;;;;;;27.31;44.34;98171.74;25043;1318;3026491;-63
2022/07/10 09:29:47;;;;;;;19.40;7.40;;;;;;;27.29;43.90;98176.92;24734;1318;3054666;-64
2022/07/10 09:32:17;;;;;;;12.90;7.20;;;;;;;26.97;44.44;98172.98;25038;1318;3058251;-62
2022/07/10 09:34:48;;;;;;;14.40;6.70;;;;;;;26.88;44.80;98168.00;25043;1318;3026319;-64
2022/07/10 09:37:24;;;;;;;14.20;7.70;;;;;;;26.79;45.38;98174.19;25082;1316;3026926;-67
2022/07/10 09:40:04;;;;;;;12.70;6.90;;;;;;;26.83;45.63;98165.63;25123;1315;3049521;-65
2022/07/10 09:42:42;;;;;;;13.50;8.00;;;;;;;26.88;45.32;98170.54;25114;1313;3071384;-64
2022/07/10 09:47:58;;;;;;;18.40;6.90;;;;;;;27.17;45.25;98167.21;25117;1315;3026758;-64
2022/07/10 09:50:34;;;;;;;16.90;6.70;;;;;;;27.42;44.79;98174.31;25115;1315;3052232;-63
2022/07/10 09:53:04;;;;;;;22.30;6.60;;;;;;;27.36;44.34;98175.12;25132;1314;3055094;-65
2022/07/10 09:55:34;;;;;;;18.50;6.70;;;;;;;27.26;44.25;98175.35;25097;1313;3027011;-64
2022/07/10 09:58:07;;;;;;;16.60;7.20;;;;;;;27.35;44.44;98175.54;25129;1314;3026431;-65
2022/07/10 10:00:45;;;;;;;;;;;;;;;27.65;43.67;98181.67;25152;1315;3050861;-63
2022/07/10 10:03:17;;;;;;;14.70;6.70;;;;;;;27.54;43.30;98179.92;25078;1313;3071846;-65
2022/07/10 10:05:56;;;;;;;11.60;5.80;;;;;;;27.63;43.15;98181.91;25075;1315;3028302;-65
2022/07/10 10:08:27;;;;;;;19.30;7.00;;;;;;;27.53;43.25;98181.40;25043;1313;3052698;-66
2022/07/10 10:10:57;;;;;;;12.50;6.40;;;;;;;27.81;42.97;98172.64;25072;1313;3026687;-66
2022/07/10 10:13:27;;;;;;;14.00;6.70;;;;;;;28.04;42.55;98174.61;25066;1313;3026780;-65
2022/07/10 10:15:57;;;;;;;19.30;8.90;;;;;;;28.16;42.52;98165.98;25137;1313;3026688;-65
2022/07/10 10:18:29;;;;;;;18.50;9.90;;;;;;;28.32;41.70;98168.90;25085;1315;3026004;-63
2022/07/10 10:20:58;;;;;;;14.70;9.50;;;;;;;28.24;41.46;98169.77;25134;1315;3028447;-64
2022/07/10 10:23:27;;;;;;;19.60;10.40;;;;;;;28.07;41.60;98170.29;25142;1315;3030698;-66
2022/07/10 10:25:57;;;;;;;19.20;10.20;;;;;;;27.94;41.70;98169.19;25088;1315;3052532;-63
2022/07/10 10:28:26;;;;;;;18.40;9.20;;;;;;;27.88;42.18;98166.96;25095;1315;3027190;-64
2022/07/10 10:30:58;;;;;;;16.80;7.80;;;;;;;27.94;42.72;98164.33;25080;1315;3027204;-65
2022/07/10 10:33:31;;;;;;;19.20;9.10;;;;;;;27.92;43.11;98162.34;25130;1315;3026556;-65
2022/07/10 10:36:00;;;;;;;17.30;7.50;;;;;;;27.88;43.32;98163.98;25119;1313;3026581;-66
2022/07/10 10:38:47;;;;;;;16.00;7.90;;;;;;;27.79;43.92;98163.62;25109;1315;3031247;-66
2022/07/10 10:41:24;;;;;;;11.90;7.50;;;;;;;27.64;44.62;98165.80;25172;1315;3053824;-65
2022/07/10 10:44:09;;;;;;;13.10;7.50;;;;;;;27.62;44.55;98167.84;25147;1313;3052781;-64
2022/07/10 10:46:50;;;;;;;18.10;8.40;;;;;;;27.53;44.82;98169.81;25075;1313;3052933;-63
2022/07/10 10:49:24;;;;;;;14.60;8.10;;;;;;;27.55;44.92;98171.70;25118;1313;3056661;-65
2022/07/10 10:51:57;;;;;;;19.50;8.20;;;;;;;27.38;44.99;98179.65;25145;1313;3049653;-64
2022/07/10 10:54:30;;;;;;;20.80;9.30;;;;;;;27.36;45.05;98184.86;25153;1313;3026757;-64
2022/07/10 10:57:12;;;;;;;13.40;8.10;;;;;;;27.41;45.58;98188.40;25171;1314;3026727;-63
2022/07/10 11:00:06;;;;;;;16.30;8.40;;;;;;;27.21;46.19;98189.96;25086;1315;3071268;-65
2022/07/10 11:02:42;;;;;;;15.20;8.20;;;;;;;26.82;47.64;98178.81;25121;1314;3052171;-63
2022/07/10 11:05:14;;;;;;;13.90;7.70;;;;;;;26.75;48.34;98171.57;25167;1315;3055399;-65
2022/07/10 11:07:57;;;;;;;13.10;7.20;;;;;;;26.60;49.85;98167.70;25106;1315;3026417;-66
2022/07/10 11:10:28;;;;;;;18.20;7.50;;;;;;;26.37;50.79;98159.15;25120;1313;3057199;-65
2022/07/10 11:13:02;;;;;;;17.10;8.70;;;;;;;26.26;51.26;98153.05;25099;1315;3026303;-64
2022/07/10 11:15:35;;;;;;;13.70;8.00;;;;;;;26.38;51.30;98157.15;25122;1315;3026540;-66
2022/07/10 11:18:06;;;;;;;16.80;8.30;;;;;;;26.49;51.03;98165.21;25096;1315;3053367;-65
2022/07/10 11:20:41;;;;;;;19.60;8.60;;;;;;;26.63;50.28;98166.48;25112;1315;3026381;-65
2022/07/10 11:23:29;;;;;;;15.90;7.60;;;;;;;26.84;50.06;98168.13;25158;1314;3049235;-64
2022/07/10 11:26:08;;;;;;;10.50;7.30;;;;;;;27.00;49.54;98164.59;25161;1312;3052440;-65
2022/07/10 11:28:55;;;;;;;15.00;7.30;;;;;;;27.10;49.54;98167.81;25132;1315;3052954;-66
2022/07/10 11:31:27;;;;;;;12.90;7.50;;;;;;;27.05;49.48;98166.40;25133;1315;3057246;-69
2022/07/10 11:33:56;;;;;;;13.90;7.20;;;;;;;27.02;49.66;98173.95;25144;1312;3026491;-64
2022/07/10 11:36:31;;;;;;;12.10;6.90;;;;;;;26.95;49.78;98172.77;25113;1315;3054595;-66